Back to Top

Language: 

My Weather Underground Personal Weather Station Historical Data with Graphs...

Delerius Weather Station Historical Data
Daily Summary for July 22, 2017 Units:  Metric    English   Both
« Previous Day
Next Day »
Daily Weekly Monthly Yearly Custom
  High: Low: Average:
Temperature: 20.6 °C 12.6 °C 15.7 °C
Dew Point: 14 °C 9.6 °C 12.4 °C
Humidity: 96 % 50 % 83 %
Wind Speed: 19.3 km/h 0 km/h 7.1 km/h
Wind Gust: 37 km/h - -
Wind:- - SSE
Pressure: 1008.4 hPa 1004.3 hPa -
Precipitation: 9.65 mm    
Historical Graphs
 
 
Tabular Data for July 22, 2017
Time Temperature Dew Point Pressure Wind Wind Speed Wind Gust Humidity Rainfall Rate (Hourly) solar Conditions
00:01 16.1 °C 13.6 °C 1005 hPa SSE 8 km/h 20.9 km/h 85 % 0.25 mm 0 W/m2
00:06 16 °C 13.7 °C 1005 hPa South 6.4 km/h 16.1 km/h 86 % 0.25 mm 0 W/m2
00:12 15.8 °C 13.7 °C 1005 hPa SSE 8 km/h 16.1 km/h 87 % 0.25 mm 0 W/m2
00:17 15.8 °C 13.7 °C 1005 hPa South 9.7 km/h 17.7 km/h 87 % 0.25 mm 0 W/m2
00:22 15.7 °C 13.7 °C 1005 hPa South 11.3 km/h 22.5 km/h 88 % 0.25 mm 0 W/m2
00:27 15.6 °C 13.8 °C 1005 hPa SSE 11.3 km/h 22.5 km/h 89 % 0.25 mm 0 W/m2
00:32 15.5 °C 13.9 °C 1005 hPa SSE 11.3 km/h 22.5 km/h 90 % 0.25 mm 0 W/m2
00:37 15.4 °C 13.8 °C 1005 hPa SSE 12.9 km/h 30.6 km/h 90 % 0.51 mm 0 W/m2
00:42 15.3 °C 13.7 °C 1005 hPa SSE 14.5 km/h 30.6 km/h 90 % 0.51 mm 0 W/m2
00:47 15.2 °C 13.7 °C 1005 hPa SSE 16.1 km/h 30.6 km/h 91 % 0.25 mm 0 W/m2
00:52 15.2 °C 13.7 °C 1005 hPa SE 14.5 km/h 25.7 km/h 91 % 0.25 mm 0 W/m2
00:57 15.1 °C 13.7 °C 1005 hPa SE 12.9 km/h 24.1 km/h 91 % 0.25 mm 0 W/m2
01:02 15.1 °C 13.8 °C 1005 hPa SE 11.3 km/h 24.1 km/h 92 % 0.25 mm 0 W/m2
01:07 15 °C 13.7 °C 1004.6 hPa SE 11.3 km/h 20.9 km/h 92 % 0.25 mm 0 W/m2
01:12 14.9 °C 13.6 °C 1004.6 hPa SE 12.9 km/h 20.9 km/h 92 % 0.25 mm 0 W/m2
01:17 14.9 °C 13.6 °C 1004.6 hPa SE 12.9 km/h 22.5 km/h 92 % 0.25 mm 0 W/m2
01:22 14.8 °C 13.5 °C 1004.6 hPa SE 12.9 km/h 22.5 km/h 92 % 0.25 mm 0 W/m2
01:27 14.8 °C 13.5 °C 1004.6 hPa SE 11.3 km/h 19.3 km/h 92 % 0.25 mm 0 W/m2
01:32 14.8 °C 13.5 °C 1005 hPa SE 12.9 km/h 25.7 km/h 92 % 0.51 mm 0 W/m2
01:37 14.8 °C 13.5 °C 1005 hPa SE 12.9 km/h 25.7 km/h 92 % 0.25 mm 0 W/m2
01:42 14.7 °C 13.4 °C 1005 hPa SE 12.9 km/h 20.9 km/h 92 % 0.25 mm 0 W/m2
01:47 14.7 °C 13.4 °C 1005 hPa SE 11.3 km/h 19.3 km/h 92 % 0.25 mm 0 W/m2
01:52 14.7 °C 13.4 °C 1005 hPa SE 11.3 km/h 17.7 km/h 92 % 0.25 mm 0 W/m2
01:57 14.7 °C 13.6 °C 1004.6 hPa SE 9.7 km/h 17.7 km/h 93 % 0.25 mm 0 W/m2
02:02 14.7 °C 13.6 °C 1004.6 hPa ESE 9.7 km/h 17.7 km/h 93 % 0.25 mm 0 W/m2
02:07 14.7 °C 13.6 °C 1005 hPa ESE 8 km/h 17.7 km/h 93 % 0.25 mm 0 W/m2
02:12 14.7 °C 13.6 °C 1004.6 hPa ESE 8 km/h 16.1 km/h 93 % 0.51 mm 0 W/m2
02:17 14.7 °C 13.6 °C 1004.6 hPa SE 9.7 km/h 14.5 km/h 93 % 0.51 mm 0 W/m2
02:22 14.7 °C 13.6 °C 1005 hPa SE 8 km/h 14.5 km/h 93 % 0.51 mm 0 W/m2
02:27 14.7 °C 13.6 °C 1005 hPa ESE 6.4 km/h 12.9 km/h 93 % 0.51 mm 0 W/m2
02:32 14.7 °C 13.6 °C 1005 hPa ESE 8 km/h 12.9 km/h 93 % 0.25 mm 0 W/m2
02:37 14.7 °C 13.7 °C 1005 hPa ESE 8 km/h 12.9 km/h 94 % 0.25 mm 0 W/m2
02:42 14.7 °C 13.7 °C 1005 hPa ESE 8 km/h 16.1 km/h 94 % 0.25 mm 0 W/m2
02:47 14.6 °C 13.7 °C 1005 hPa ESE 8 km/h 16.1 km/h 94 % 0.25 mm 0 W/m2
02:52 14.5 °C 13.6 °C 1005 hPa ESE 9.7 km/h 16.1 km/h 94 % 0.25 mm 0 W/m2
02:57 14.4 °C 13.4 °C 1005 hPa ESE 8 km/h 16.1 km/h 94 % 0.25 mm 0 W/m2
03:02 14.4 °C 13.3 °C 1005 hPa ESE 8 km/h 16.1 km/h 93 % 0.25 mm 0 W/m2
03:07 14.3 °C 13.3 °C 1005 hPa ESE 6.4 km/h 16.1 km/h 94 % 0.25 mm 0 W/m2
03:12 14.2 °C 13.2 °C 1005 hPa ESE 6.4 km/h 12.9 km/h 94 % 0 mm 0 W/m2
03:18 14.2 °C 13.1 °C 1005 hPa ESE 8 km/h 14.5 km/h 93 % 0 mm 0 W/m2
03:23 14.1 °C 13 °C 1005 hPa ESE 8 km/h 17.7 km/h 93 % 0 mm 0 W/m2
03:28 14.1 °C 13 °C 1005 hPa ESE 9.7 km/h 17.7 km/h 93 % 0 mm 0 W/m2
03:33 14.1 °C 13 °C 1005 hPa ESE 8 km/h 16.1 km/h 93 % 0 mm 0 W/m2
03:38 14.1 °C 13 °C 1005 hPa ESE 8 km/h 16.1 km/h 93 % 0 mm 0 W/m2
03:43 14.1 °C 13 °C 1004.6 hPa ESE 8 km/h 16.1 km/h 93 % 0 mm 0 W/m2
03:48 14 °C 12.9 °C 1004.6 hPa ESE 8 km/h 16.1 km/h 93 % 0 mm 0 W/m2
03:53 14 °C 12.9 °C 1004.6 hPa ESE 8 km/h 16.1 km/h 93 % 0 mm 0 W/m2
03:58 14 °C 13.1 °C 1005 hPa ESE 6.4 km/h 12.9 km/h 94 % 0 mm 0 W/m2
04:03 14 °C 13.1 °C 1005 hPa ESE 8 km/h 14.5 km/h 94 % 0 mm 0 W/m2
04:08 14 °C 13.1 °C 1005 hPa ESE 8 km/h 14.5 km/h 94 % 0 mm 0 W/m2
04:13 14 °C 13.1 °C 1005 hPa SE 6.4 km/h 12.9 km/h 94 % 0 mm 0 W/m2
04:18 14.1 °C 13.2 °C 1004.6 hPa SE 8 km/h 16.1 km/h 94 % 0 mm 0 W/m2
04:23 14.1 °C 13.2 °C 1004.6 hPa ESE 8 km/h 16.1 km/h 94 % 0 mm 0 W/m2
04:28 14.1 °C 13.2 °C 1004.6 hPa ESE 8 km/h 14.5 km/h 94 % 0 mm 0 W/m2
04:33 14.1 °C 13.2 °C 1004.6 hPa ESE 8 km/h 14.5 km/h 94 % 0 mm 0 W/m2
04:38 14.2 °C 13.2 °C 1004.6 hPa ESE 8 km/h 14.5 km/h 94 % 0 mm 0 W/m2
04:43 14.2 °C 13.2 °C 1004.6 hPa ESE 8 km/h 14.5 km/h 94 % 0 mm 0 W/m2
04:48 14.2 °C 13.4 °C 1004.6 hPa ESE 8 km/h 19.3 km/h 95 % 0 mm 0 W/m2
04:49 14.2 °C 13.4 °C 1004.6 hPa ESE 8 km/h 19.3 km/h 95 % 0 mm 0 W/m2
04:54 14.2 °C 13.4 °C 1004.6 hPa ESE 8 km/h 19.3 km/h 95 % 0 mm 0 W/m2
04:59 14.2 °C 13.4 °C 1004.6 hPa ESE 8 km/h 14.5 km/h 95 % 0 mm 0 W/m2
05:04 14.3 °C 13.5 °C 1004.6 hPa ESE 8 km/h 12.9 km/h 95 % 0 mm 0 W/m2
05:09 14.3 °C 13.5 °C 1004.6 hPa ESE 8 km/h 14.5 km/h 95 % 0 mm 0 W/m2
05:14 14.3 °C 13.5 °C 1004.6 hPa ESE 8 km/h 16.1 km/h 95 % 0.25 mm 0 W/m2
05:19 14.3 °C 13.5 °C 1005 hPa ESE 8 km/h 16.1 km/h 95 % 0.51 mm 0 W/m2
05:24 14.3 °C 13.5 °C 1005 hPa ESE 8 km/h 14.5 km/h 95 % 0.51 mm 0 W/m2
05:29 14.2 °C 13.4 °C 1005 hPa ESE 9.7 km/h 14.5 km/h 95 % 0.51 mm 0 W/m2
05:34 14.2 °C 13.4 °C 1005 hPa ESE 8 km/h 14.5 km/h 95 % 0.76 mm 0 W/m2
05:39 14.2 °C 13.4 °C 1005 hPa ESE 9.7 km/h 16.1 km/h 95 % 1.27 mm 0 W/m2
05:44 14.2 °C 13.4 °C 1005 hPa ESE 9.7 km/h 16.1 km/h 95 % 1.52 mm 0 W/m2
05:49 14.2 °C 13.4 °C 1005 hPa ESE 8 km/h 14.5 km/h 95 % 1.78 mm 5 W/m2
05:54 14.1 °C 13.3 °C 1005 hPa ESE 8 km/h 14.5 km/h 95 % 1.78 mm 7 W/m2
05:59 14.1 °C 13.4 °C 1004.6 hPa ESE 6.4 km/h 14.5 km/h 96 % 2.03 mm 11 W/m2
06:04 14.1 °C 13.4 °C 1005 hPa ESE 8 km/h 16.1 km/h 96 % 2.29 mm 11 W/m2
06:09 14.1 °C 13.4 °C 1005 hPa ESE 9.7 km/h 19.3 km/h 96 % 2.29 mm 9 W/m2
06:14 14 °C 13.4 °C 1005 hPa ESE 9.7 km/h 19.3 km/h 96 % 2.03 mm 14 W/m2
06:19 13.9 °C 13.1 °C 1004.6 hPa ESE 8 km/h 16.1 km/h 95 % 1.78 mm 16 W/m2
06:24 13.8 °C 13.2 °C 1004.6 hPa ESE 6.4 km/h 16.1 km/h 96 % 1.52 mm 16 W/m2
06:29 13.7 °C 13.1 °C 1004.6 hPa ESE 4.8 km/h 16.1 km/h 96 % 1.52 mm 19 W/m2
06:34 13.7 °C 13.1 °C 1004.6 hPa ESE 3.2 km/h 11.3 km/h 96 % 1.52 mm 30 W/m2
06:39 13.7 °C 13.1 °C 1005 hPa ESE 3.2 km/h 11.3 km/h 96 % 1.27 mm 19 W/m2
06:44 13.7 °C 13.1 °C 1005 hPa ESE 3.2 km/h 9.7 km/h 96 % 0.76 mm 30 W/m2
06:49 13.6 °C 13 °C 1005 hPa ESE 4.8 km/h 12.9 km/h 96 % 0.76 mm 30 W/m2
06:54 13.5 °C 12.9 °C 1005 hPa ESE 6.4 km/h 12.9 km/h 96 % 0.76 mm 33 W/m2
06:59 13.5 °C 12.9 °C 1005 hPa ESE 3.2 km/h 11.3 km/h 96 % 0.51 mm 54 W/m2
07:04 13.5 °C 12.9 °C 1005 hPa ESE 3.2 km/h 8 km/h 96 % 0.51 mm 46 W/m2
07:09 13.5 °C 12.9 °C 1005 hPa ESE 1.6 km/h 9.7 km/h 96 % 0.51 mm 44 W/m2
07:14 13.5 °C 12.9 °C 1005 hPa ESE 3.2 km/h 9.7 km/h 96 % 0.51 mm 44 W/m2
07:19 13.6 °C 13 °C 1005 hPa ESE 1.6 km/h 8 km/h 96 % 0.51 mm 33 W/m2
07:24 13.6 °C 13 °C 1005 hPa ESE 1.6 km/h 8 km/h 96 % 0.51 mm 28 W/m2
07:29 13.6 °C 13 °C 1005 hPa SE 1.6 km/h 8 km/h 96 % 0.51 mm 28 W/m2
07:34 13.6 °C 13 °C 1005 hPa South 1.6 km/h 9.7 km/h 96 % 0.51 mm 54 W/m2
07:39 13.6 °C 13 °C 1005 hPa SSW 1.6 km/h 9.7 km/h 96 % 0.51 mm 51 W/m2
07:44 13.6 °C 13 °C 1005 hPa Calm   4.8 km/h 96 % 0.51 mm 51 W/m2
07:49 13.7 °C 13.1 °C 1005 hPa Calm   4.8 km/h 96 % 0.51 mm 47 W/m2
07:55 13.7 °C 13.1 °C 1005 hPa Calm     96 % 0.51 mm 44 W/m2
08:00 13.7 °C 13.1 °C 1005 hPa Calm     96 % 0.51 mm 39 W/m2
08:01 13.7 °C 13.1 °C 1005 hPa Calm     96 % 0.51 mm 40 W/m2
08:06 13.7 °C 13.1 °C 1005 hPa Calm     96 % 0.51 mm 58 W/m2
08:11 13.7 °C 13.1 °C 1005 hPa Calm     96 % 0.51 mm 130 W/m2
08:16 13.7 °C 13.1 °C 1005 hPa Calm     96 % 0.51 mm 114 W/m2
08:21 13.7 °C 13.1 °C 1005 hPa Calm     96 % 0.51 mm 163 W/m2
08:26 13.8 °C 13.2 °C 1004.6 hPa Calm   3.2 km/h 96 % 0.51 mm 192 W/m2
08:31 13.8 °C 13.2 °C 1004.3 hPa NNW 4.8 km/h 14.5 km/h 96 % 0.25 mm 257 W/m2
08:36 13.9 °C 13.3 °C 1005 hPa NNW 6.4 km/h 14.5 km/h 96 % 0.25 mm 178 W/m2
08:41 14 °C 13.4 °C 1005.3 hPa WSW 4.8 km/h 11.3 km/h 96 % 0.25 mm 76 W/m2
08:46 14 °C 13.4 °C 1005.3 hPa SSW 6.4 km/h 11.3 km/h 96 % 0.25 mm 32 W/m2
08:51 13.9 °C 13.3 °C 1005.3 hPa SSW 4.8 km/h 9.7 km/h 96 % 0.25 mm 35 W/m2
08:57 13.9 °C 13.3 °C 1005.3 hPa SSW 3.2 km/h 9.7 km/h 96 % 0.25 mm 56 W/m2
09:01 13.9 °C 13.3 °C 1005.3 hPa Calm   6.4 km/h 96 % 0 mm 98 W/m2
09:06 13.9 °C 13.1 °C 1005.3 hPa Calm   1.6 km/h 95 % 0 mm 127 W/m2
09:12 14 °C 13.2 °C 1005.3 hPa Calm   3.2 km/h 95 % 0 mm 83 W/m2
09:17 14 °C 13.2 °C 1005.3 hPa SSW 1.6 km/h 6.4 km/h 95 % 0 mm 116 W/m2
09:22 14.1 °C 13.3 °C 1005.3 hPa SSW 1.6 km/h 6.4 km/h 95 % 0 mm 93 W/m2
09:27 14 °C 13.2 °C 1005.3 hPa SSW 1.6 km/h 6.4 km/h 95 % 0 mm 76 W/m2
09:32 14 °C 13.2 °C 1005.3 hPa SSW 3.2 km/h 6.4 km/h 95 % 0 mm 95 W/m2
09:37 13.9 °C 13.1 °C 1005.3 hPa SSW 1.6 km/h 6.4 km/h 95 % 0 mm 104 W/m2
09:42 13.9 °C 13.1 °C 1005.3 hPa Calm   9.7 km/h 95 % 0 mm 104 W/m2
09:47 14 °C 13.2 °C 1005.3 hPa SSW 1.6 km/h 11.3 km/h 95 % 0 mm 120 W/m2
09:52 14.1 °C 13.3 °C 1005.6 hPa South 3.2 km/h 11.3 km/h 95 % 0 mm 107 W/m2
09:57 14.1 °C 13.3 °C 1005.6 hPa SSE 6.4 km/h 12.9 km/h 95 % 0 mm 142 W/m2
09:59 14.1 °C 13.3 °C 1005.6 hPa SSE 6.4 km/h 12.9 km/h 95 % 0 mm 158 W/m2
10:05 14.1 °C 13.2 °C 1005.6 hPa South 8 km/h 17.7 km/h 94 % 0 mm 223 W/m2
10:10 14.2 °C 13.2 °C 1005.6 hPa South 9.7 km/h 17.7 km/h 94 % 0 mm 330 W/m2
10:15 14.4 °C 13.6 °C 1005.6 hPa South 8 km/h 17.7 km/h 95 % 0 mm 406 W/m2
10:20 14.7 °C 13.7 °C 1005.6 hPa SSW 6.4 km/h 12.9 km/h 94 % 0 mm 424 W/m2
10:25 14.9 °C 13.9 °C 1005.6 hPa SSW 8 km/h 16.1 km/h 94 % 0 mm 513 W/m2
10:30 15.1 °C 14 °C 1005.3 hPa SSW 8 km/h 16.1 km/h 93 % 0 mm 538 W/m2
10:35 15.3 °C 13.8 °C 1005.3 hPa SSW 8 km/h 17.7 km/h 91 % 0 mm 520 W/m2
10:40 15.6 °C 13.9 °C 1005.3 hPa SSW 8 km/h 17.7 km/h 90 % 0 mm 642 W/m2
10:45 15.8 °C 13.8 °C 1005.3 hPa SSW 8 km/h 14.5 km/h 88 % 0 mm 366 W/m2
10:50 16 °C 13.7 °C 1005.6 hPa SSW 8 km/h 14.5 km/h 86 % 0 mm 926 W/m2
10:55 16.3 °C 13.8 °C 1005.3 hPa SSW 8 km/h 11.3 km/h 85 % 0 mm 926 W/m2
11:00 16.6 °C 13.5 °C 1005.3 hPa SSW 8 km/h 14.5 km/h 82 % 0 mm 413 W/m2
11:05 16.7 °C 13.2 °C 1005.3 hPa SSW 9.7 km/h 16.1 km/h 80 % 0 mm 364 W/m2
11:10 16.6 °C 12.9 °C 1005.3 hPa SSW 9.7 km/h 17.7 km/h 79 % 0 mm 315 W/m2
11:15 16.6 °C 12.7 °C 1005.3 hPa SSW 9.7 km/h 17.7 km/h 78 % 0 mm 295 W/m2
11:20 16.6 °C 12.6 °C 1005.6 hPa SSW 9.7 km/h 16.1 km/h 77 % 0 mm 348 W/m2
11:25 16.8 °C 12.7 °C 1005.6 hPa SW 9.7 km/h 12.9 km/h 77 % 0 mm 422 W/m2
11:30 16.9 °C 12.7 °C 1005.6 hPa SW 9.7 km/h 14.5 km/h 76 % 0 mm 490 W/m2
11:35 17 °C 12.3 °C 1005.6 hPa SSW 11.3 km/h 16.1 km/h 74 % 0 mm 422 W/m2
11:40 17.2 °C 12.7 °C 1005.6 hPa SSW 9.7 km/h 16.1 km/h 75 % 0 mm 420 W/m2
11:45 17.3 °C 12.8 °C 1005.6 hPa SSW 8 km/h 16.1 km/h 75 % 0 mm 454 W/m2
11:50 17.3 °C 12.4 °C 1005.6 hPa South 9.7 km/h 19.3 km/h 73 % 0 mm 504 W/m2
11:55 17.3 °C 12.2 °C 1005.6 hPa South 11.3 km/h 19.3 km/h 72 % 0 mm 628 W/m2
12:00 17.6 °C 12.9 °C 1005.6 hPa SSW 8 km/h 17.7 km/h 74 % 0 mm 628 W/m2
12:05 18 °C 13.1 °C 1005.6 hPa SW 8 km/h 14.5 km/h 73 % 0 mm 628 W/m2
12:10 18.1 °C 12.8 °C 1005.6 hPa SW 11.3 km/h 20.9 km/h 71 % 0 mm 250 W/m2
12:15 17.8 °C 12.7 °C 1005.6 hPa SW 12.9 km/h 20.9 km/h 72 % 0 mm 257 W/m2
12:20 17.8 °C 12.7 °C 1006 hPa SW 9.7 km/h 20.9 km/h 72 % 0 mm 243 W/m2
12:25 17.9 °C 12.3 °C 1006 hPa SW 12.9 km/h 24.1 km/h 70 % 0 mm 970 W/m2
12:30 18 °C 12.2 °C 1006 hPa SSW 14.5 km/h 24.1 km/h 69 % 0 mm 1002 W/m2
12:35 18.2 °C 11.9 °C 1006 hPa SW 12.9 km/h 22.5 km/h 67 % 0 mm 1009 W/m2
12:40 18.3 °C 12.3 °C 1006 hPa SW 12.9 km/h 22.5 km/h 68 % 0 mm 997 W/m2
12:45 18.7 °C 12.7 °C 1006 hPa SSW 11.3 km/h 20.9 km/h 68 % 0 mm 993 W/m2
12:50 18.7 °C 12 °C 1006 hPa SSW 11.3 km/h 19.3 km/h 65 % 0 mm 227 W/m2
12:55 18.6 °C 11.9 °C 1006 hPa SSW 11.3 km/h 22.5 km/h 65 % 0 mm 995 W/m2
13:00 18.6 °C 11.7 °C 1006 hPa SW 11.3 km/h 22.5 km/h 64 % 0 mm 269 W/m2
13:03 18.6 °C 11.9 °C 1006 hPa SW 12.9 km/h 25.7 km/h 65 % 0 mm 990 W/m2
13:08 18.7 °C 11.7 °C 1006 hPa SSW 14.5 km/h 25.7 km/h 64 % 0 mm 995 W/m2
13:13 19.2 °C 12 °C 1006 hPa South 12.9 km/h 20.9 km/h 63 % 0 mm 1018 W/m2
13:18 19.1 °C 11.4 °C 1006 hPa South 12.9 km/h 20.9 km/h 61 % 0 mm 241 W/m2
13:23 18.9 °C 12.2 °C 1006 hPa SSW 12.9 km/h 22.5 km/h 65 % 0 mm 1099 W/m2
13:28 18.9 °C 11.9 °C 1006 hPa SSW 12.9 km/h 22.5 km/h 64 % 0 mm 939 W/m2
13:33 19.1 °C 11.7 °C 1006 hPa SSW 11.3 km/h 19.3 km/h 62 % 0 mm 1018 W/m2
13:38 19.2 °C 11.5 °C 1006 hPa SW 8 km/h 17.7 km/h 61 % 0 mm 1053 W/m2
13:44 19.4 °C 11.4 °C 1006 hPa SSW 8 km/h 14.5 km/h 60 % 0 mm 271 W/m2
13:49 19.8 °C 12.1 °C 1006 hPa South 8 km/h 16.1 km/h 61 % 0 mm 990 W/m2
13:54 20 °C 11.5 °C 1006 hPa SSW 9.7 km/h 17.7 km/h 58 % 0 mm 1000 W/m2
13:59 19.9 °C 11.4 °C 1006 hPa South 11.3 km/h 19.3 km/h 58 % 0 mm 998 W/m2
14:04 20 °C 11.5 °C 1006 hPa SSE 11.3 km/h 19.3 km/h 58 % 0 mm 863 W/m2
14:09 20.1 °C 11.8 °C 1006 hPa South 9.7 km/h 16.1 km/h 59 % 0 mm 979 W/m2
14:14 20.3 °C 11.2 °C 1006 hPa SSW 9.7 km/h 16.1 km/h 56 % 0 mm 290 W/m2
14:19 20.2 °C 11.1 °C 1006 hPa SSW 8 km/h 16.1 km/h 56 % 0 mm 499 W/m2
14:24 20.1 °C 10.8 °C 1006 hPa South 8 km/h 19.3 km/h 55 % 0 mm 396 W/m2
14:29 19.8 °C 10.8 °C 1006 hPa SSW 9.7 km/h 19.3 km/h 56 % 0 mm 339 W/m2
14:34 19.7 °C 11.2 °C 1006 hPa SSW 9.7 km/h 16.1 km/h 58 % 0 mm 1002 W/m2
14:39 19.9 °C 11.1 °C 1006 hPa SSW 8 km/h 14.5 km/h 57 % 0 mm 1025 W/m2
14:44 20.2 °C 10.9 °C 1005.6 hPa SSW 6.4 km/h 16.1 km/h 55 % 0 mm 715 W/m2
14:45 20.3 °C 11.2 °C 1005.6 hPa SW 8 km/h 16.1 km/h 56 % 0 mm 715 W/m2
14:50 20.1 °C 10.5 °C 1006 hPa SW 8 km/h 16.1 km/h 54 % 0 mm 369 W/m2
14:55 20 °C 10.9 °C 1006 hPa SSW 6.4 km/h 14.5 km/h 56 % 0 mm 369 W/m2
15:00 19.9 °C 10.8 °C 1005.6 hPa SSW 8 km/h 16.1 km/h 56 % 0 mm 251 W/m2
15:05 19.8 °C 11.3 °C 1006 hPa SSW 9.7 km/h 16.1 km/h 58 % 0 mm 237 W/m2
15:10 19.8 °C 11.3 °C 1006 hPa SW 9.7 km/h 14.5 km/h 58 % 0 mm 884 W/m2
15:15 19.8 °C 11.1 °C 1005.6 hPa SW 8 km/h 14.5 km/h 57 % 0 mm 301 W/m2
15:20 19.9 °C 11.4 °C 1006 hPa SW 8 km/h 12.9 km/h 58 % 0 mm 793 W/m2
15:25 20.1 °C 11.1 °C 1006 hPa SSW 8 km/h 12.9 km/h 56 % 0 mm 323 W/m2
15:30 20.1 °C 11.1 °C 1006 hPa South 6.4 km/h 12.9 km/h 56 % 0 mm 265 W/m2
15:35 20.2 °C 10.9 °C 1006 hPa South 6.4 km/h 11.3 km/h 55 % 0 mm 366 W/m2
15:40 20.2 °C 11.7 °C 1006 hPa South 4.8 km/h 11.3 km/h 58 % 0 mm 229 W/m2
15:45 20.2 °C 11.1 °C 1006 hPa SSE 6.4 km/h 11.3 km/h 56 % 0 mm 246 W/m2
15:50 20.2 °C 11.1 °C 1006 hPa SSE 4.8 km/h 9.7 km/h 56 % 0 mm 406 W/m2
15:55 20.2 °C 11.1 °C 1006 hPa SE 4.8 km/h 12.9 km/h 56 % 0 mm 283 W/m2
16:00 20.3 °C 10.9 °C 1005.6 hPa SE 4.8 km/h 12.9 km/h 55 % 0 mm 624 W/m2
16:05 20.4 °C 11.1 °C 1006 hPa SE 4.8 km/h 16.1 km/h 55 % 0 mm 209 W/m2
16:11 20.4 °C 11.1 °C 1006 hPa SE 4.8 km/h 16.1 km/h 55 % 0 mm 251 W/m2
16:16 20.4 °C 11.1 °C 1006 hPa SE 1.6 km/h 8 km/h 55 % 0 mm 281 W/m2
16:21 20.5 °C 10.6 °C 1006 hPa SSE 3.2 km/h 8 km/h 53 % 0 mm 308 W/m2
16:26 20.5 °C 10.3 °C 1006 hPa SSE 4.8 km/h 14.5 km/h 52 % 0 mm 299 W/m2
16:31 20.4 °C 10.5 °C 1006 hPa SSE 6.4 km/h 14.5 km/h 53 % 0 mm 292 W/m2
16:36 20.5 °C 10.9 °C 1006 hPa SSE 6.4 km/h 12.9 km/h 54 % 0 mm 223 W/m2
16:41 20.4 °C 10.5 °C 1006 hPa SE 6.4 km/h 11.3 km/h 53 % 0 mm 190 W/m2
16:46 20.4 °C 10.5 °C 1006 hPa SE 6.4 km/h 11.3 km/h 53 % 0 mm 176 W/m2
16:51 20.3 °C 10.9 °C 1006 hPa SE 3.2 km/h 9.7 km/h 55 % 0 mm 134 W/m2
16:56 20.3 °C 10.7 °C 1006 hPa SE 3.2 km/h 11.3 km/h 54 % 0 mm 135 W/m2
17:01 20.2 °C 10.6 °C 1006 hPa SE 6.4 km/h 11.3 km/h 54 % 0 mm 218 W/m2
17:06 20.2 °C 10.9 °C 1005.6 hPa SE 6.4 km/h 11.3 km/h 55 % 0 mm 287 W/m2
17:11 20.2 °C 10.6 °C 1006 hPa SSE 4.8 km/h 9.7 km/h 54 % 0 mm 163 W/m2
17:16 20.1 °C 10.2 °C 1005.6 hPa SSE 4.8 km/h 9.7 km/h 53 % 0 mm 193 W/m2
17:21 20.1 °C 10.5 °C 1005.6 hPa SE 4.8 km/h 9.7 km/h 54 % 0 mm 438 W/m2
17:26 20.3 °C 10.9 °C 1005.6 hPa SE 6.4 km/h 11.3 km/h 55 % 0 mm 599 W/m2
17:31 20.6 °C 10.4 °C 1005.6 hPa SSE 4.8 km/h 11.3 km/h 52 % 0 mm 547 W/m2
17:36 20.6 °C 10.9 °C 1005.6 hPa SSE 4.8 km/h 11.3 km/h 54 % 0 mm 169 W/m2
17:41 20.4 °C 9.6 °C 1005.6 hPa SE 6.4 km/h 12.9 km/h 50 % 0 mm 167 W/m2
17:46 20.3 °C 9.8 °C 1005.6 hPa SE 6.4 km/h 14.5 km/h 51 % 0 mm 125 W/m2
17:51 20.2 °C 10.3 °C 1005.6 hPa SE 6.4 km/h 14.5 km/h 53 % 0 mm 107 W/m2
17:56 20.1 °C 10.2 °C 1005.6 hPa SSE 6.4 km/h 12.9 km/h 53 % 0 mm 100 W/m2
18:01 19.9 °C 10.3 °C 1005.6 hPa SSE 8 km/h 14.5 km/h 54 % 0 mm 81 W/m2
18:06 19.5 °C 11 °C 1006 hPa SSE 14.5 km/h 37 km/h 58 % 0 mm 56 W/m2
18:11 18.7 °C 11 °C 1006 hPa South 19.3 km/h 37 km/h 61 % 0 mm 47 W/m2
18:16 18.2 °C 11.1 °C 1006.3 hPa SSW 19.3 km/h 35.4 km/h 63 % 0 mm 49 W/m2
18:21 17.8 °C 11.1 °C 1006 hPa SSW 19.3 km/h 32.2 km/h 65 % 0 mm 58 W/m2
18:26 17.4 °C 11.2 °C 1006.3 hPa SSW 19.3 km/h 32.2 km/h 67 % 0 mm 62 W/m2
18:31 17.2 °C 11.2 °C 1006.3 hPa SSW 19.3 km/h 37 km/h 68 % 0 mm 53 W/m2
18:36 17.1 °C 11.2 °C 1006.3 hPa SSW 19.3 km/h 37 km/h 68 % 0 mm 58 W/m2
18:41 16.8 °C 10.6 °C 1006.3 hPa SSW 19.3 km/h 33.8 km/h 67 % 0 mm 51 W/m2
18:46 16.7 °C 10.1 °C 1006.3 hPa SSW 17.7 km/h 30.6 km/h 65 % 0 mm 49 W/m2
18:51 16.7 °C 10.1 °C 1006.3 hPa South 16.1 km/h 30.6 km/h 65 % 0 mm 69 W/m2
18:56 16.6 °C 10.4 °C 1006.3 hPa South 14.5 km/h 30.6 km/h 67 % 0 mm 70 W/m2
19:01 16.3 °C 10.8 °C 1006.7 hPa SSE 12.9 km/h 25.7 km/h 70 % 0 mm 49 W/m2
19:07 16.1 °C 11.1 °C 1006.7 hPa South 11.3 km/h 22.5 km/h 72 % 0 mm 39 W/m2
19:12 15.7 °C 11.1 °C 1006.7 hPa South 14.5 km/h 24.1 km/h 74 % 0 mm 33 W/m2
19:17 15.3 °C 11.1 °C 1007 hPa South 17.7 km/h 30.6 km/h 76 % 0 mm 25 W/m2
19:22 15.1 °C 11.3 °C 1007 hPa SSE 17.7 km/h 30.6 km/h 78 % 0 mm 16 W/m2
19:27 14.9 °C 11.5 °C 1007.3 hPa SSE 16.1 km/h 30.6 km/h 80 % 0 mm 12 W/m2
19:32 14.7 °C 11.7 °C 1007.3 hPa SSE 16.1 km/h 32.2 km/h 82 % 0 mm 11 W/m2
19:37 14.5 °C 11.8 °C 1007.3 hPa SSE 14.5 km/h 32.2 km/h 84 % 0.25 mm 9 W/m2
19:42 14.3 °C 11.8 °C 1007.7 hPa SE 14.5 km/h 24.1 km/h 85 % 0.25 mm 7 W/m2
19:47 14.1 °C 11.9 °C 1007.7 hPa SE 14.5 km/h 25.7 km/h 87 % 0.51 mm 9 W/m2
19:52 13.9 °C 11.9 °C 1007.7 hPa SE 14.5 km/h 25.7 km/h 88 % 1.27 mm 11 W/m2
19:57 13.7 °C 11.9 °C 1007.7 hPa SSE 14.5 km/h 20.9 km/h 89 % 2.29 mm 9 W/m2
20:02 13.5 °C 11.9 °C 1007.3 hPa SSE 12.9 km/h 20.9 km/h 90 % 2.54 mm 9 W/m2
20:07 13.4 °C 11.9 °C 1007.3 hPa South 9.7 km/h 17.7 km/h 91 % 2.54 mm 9 W/m2
20:12 13.3 °C 12 °C 1007.3 hPa SSW 8 km/h 14.5 km/h 92 % 2.79 mm 16 W/m2
20:17 13.3 °C 12 °C 1007.3 hPa SSW 8 km/h 12.9 km/h 92 % 3.05 mm 21 W/m2
20:22 13.2 °C 11.9 °C 1007.3 hPa SW 4.8 km/h 12.9 km/h 92 % 3.3 mm 16 W/m2
20:27 13.2 °C 12.1 °C 1007.7 hPa SW 1.6 km/h 9.7 km/h 93 % 3.3 mm 9 W/m2
20:32 13.1 °C 11.8 °C 1007.7 hPa Calm   3.2 km/h 92 % 3.3 mm 5 W/m2
20:37 13.1 °C 12 °C 1007.7 hPa Calm   8 km/h 93 % 3.3 mm 0 W/m2
20:42 13.1 °C 12 °C 1007.7 hPa Calm   8 km/h 93 % 3.3 mm 0 W/m2
20:47 13 °C 11.9 °C 1007.7 hPa Calm   1.6 km/h 93 % 3.3 mm 0 W/m2
20:52 13 °C 11.9 °C 1007.7 hPa Calm   3.2 km/h 93 % 2.54 mm 0 W/m2
20:57 13 °C 12.1 °C 1007.7 hPa Calm   3.2 km/h 94 % 1.78 mm 0 W/m2
21:02 13.1 °C 12.2 °C 1007.7 hPa Calm   1.6 km/h 94 % 1.52 mm 0 W/m2
21:07 13.1 °C 12.2 °C 1007.7 hPa Calm     94 % 1.78 mm 0 W/m2
21:12 13.1 °C 12.2 °C 1007.7 hPa Calm   4.8 km/h 94 % 1.52 mm 0 W/m2
21:17 13.1 °C 12.2 °C 1007.7 hPa SW 1.6 km/h 6.4 km/h 94 % 1.78 mm 0 W/m2
21:22 13.1 °C 12.2 °C 1007.7 hPa SW 1.6 km/h 6.4 km/h 94 % 1.78 mm 0 W/m2
21:27 13.1 °C 12.2 °C 1007.7 hPa Calm   3.2 km/h 94 % 1.78 mm 0 W/m2
21:32 13.1 °C 12.2 °C 1007.7 hPa Calm   3.2 km/h 94 % 1.78 mm 0 W/m2
21:37 13.1 °C 12.2 °C 1007.7 hPa SW 1.6 km/h 6.4 km/h 94 % 2.03 mm 0 W/m2
21:42 13.1 °C 12.2 °C 1007.7 hPa SW 1.6 km/h 6.4 km/h 94 % 1.78 mm 0 W/m2
21:47 13.1 °C 12.2 °C 1007.7 hPa Calm   6.4 km/h 94 % 1.78 mm 0 W/m2
21:52 13 °C 12.1 °C 1007.7 hPa Calm   4.8 km/h 94 % 1.78 mm 0 W/m2
21:57 12.9 °C 11.9 °C 1007.7 hPa Calm   1.6 km/h 94 % 1.78 mm 0 W/m2
22:02 12.9 °C 11.9 °C 1008 hPa Calm   1.6 km/h 94 % 1.52 mm 0 W/m2
22:07 12.9 °C 11.9 °C 1008 hPa Calm     94 % 1.52 mm 0 W/m2
22:12 12.8 °C 12 °C 1008 hPa Calm     95 % 1.27 mm 0 W/m2
22:18 12.9 °C 12.1 °C 1008 hPa Calm     95 % 1.02 mm 0 W/m2
22:23 12.9 °C 12.1 °C 1008 hPa Calm     95 % 0.76 mm 0 W/m2
22:28 13 °C 12.2 °C 1008 hPa Calm     95 % 0.51 mm 0 W/m2
22:33 13.1 °C 12.3 °C 1008 hPa Calm     95 % 0.51 mm 0 W/m2
22:38 13 °C 12.2 °C 1008 hPa Calm     95 % 0.51 mm 0 W/m2
22:43 13 °C 12.2 °C 1008 hPa Calm     95 % 0.51 mm 0 W/m2
22:48 13 °C 12.2 °C 1008 hPa Calm     95 % 0.25 mm 0 W/m2
22:53 12.9 °C 12.1 °C 1008 hPa Calm   3.2 km/h 95 % 0 mm 0 W/m2
22:57 12.8 °C 12 °C 1008 hPa Calm   3.2 km/h 95 % 0 mm 0 W/m2
23:02 12.8 °C 12 °C 1008 hPa Calm   3.2 km/h 95 % 0 mm 0 W/m2
23:07 12.7 °C 11.9 °C 1008.4 hPa SE 1.6 km/h 6.4 km/h 95 % 0 mm 0 W/m2
23:12 12.7 °C 11.9 °C 1008 hPa Calm   6.4 km/h 95 % 0 mm 0 W/m2
23:17 12.7 °C 11.9 °C 1008.4 hPa East 1.6 km/h 8 km/h 95 % 0 mm 0 W/m2
23:22 12.7 °C 12.1 °C 1008 hPa East 1.6 km/h 8 km/h 96 % 0 mm 0 W/m2
23:27 12.8 °C 12.2 °C 1008.4 hPa Calm   3.2 km/h 96 % 0 mm 0 W/m2
23:32 12.8 °C 12.2 °C 1008.4 hPa Calm   4.8 km/h 96 % 0 mm 0 W/m2
23:37 12.9 °C 12.3 °C 1008 hPa Calm   4.8 km/h 96 % 0 mm 0 W/m2
23:42 12.8 °C 12 °C 1008 hPa Calm   6.4 km/h 95 % 0 mm 0 W/m2
23:47 12.6 °C 11.8 °C 1008.4 hPa East 1.6 km/h 6.4 km/h 95 % 0 mm 0 W/m2
23:52 12.6 °C 11.8 °C 1008.4 hPa Calm   3.2 km/h 95 % 0 mm 0 W/m2
23:57 12.6 °C 12 °C 1008.4 hPa Calm   4.8 km/h 96 % 0 mm 0 W/m2
Delerius-Weather
Compliments of Weather Underground - 2.25 mb

Data updates at regular intervals.